CYOY

C J.H.L.(Joe) Lecomte) Heliport

Valcartier, Quebec, Canada
METAR CYOY 151907Z AUTO 07009KT 040V110 1/2SM -SN FEW002 OVC005 M04/M05 A2963
Observed Flight Rules
Feb-15 @ 19:07 UTC (14 minutes ago) Instrument Flight Rules
Wind Visibility Clouds Conditions
70° at 9 knots 1/2 miles
  • Few at 200' AGL
  • Overcast at 500' AGL
  • Light Snow
Temperatures Readings
Current -4°C / 25°F
Dewpoint -5°C / 23°F
Humidity 93%
Altimeter 29.63" Hg
Pressure 1003.42 hPa
Elevation 168
METAR CYOY 151907Z AUTO 07009KT 040V110 1/2SM -SN FEW002 OVC005 M04/M05 A2963
Observed Flight Rules
Feb-15 @ 19:07 UTC
(14 minutes ago)
LIFR
Wind Visibility
70° at 9 knots 1/2 miles
Clouds
  • Few at 200' AGL
  • Overcast at 500' AGL
Conditions
  • Light Snow
Temperature Dewpoint
-4°C / 25°F -5°C / 23°F
Humidity Altimeter Pressure
93% 29.63" Hg 1003.42 hPa